createdAt,value
2023-07-26T00:00:50.058Z,16.04
2023-07-26T00:01:50.036Z,16.05
2023-07-26T00:02:50.128Z,16.02
2023-07-26T00:03:50.065Z,16.09
2023-07-26T00:04:50.034Z,16.02
2023-07-26T00:05:50.041Z,16.00
2023-07-26T00:06:50.013Z,15.86
2023-07-26T00:07:50.063Z,15.92
2023-07-26T00:08:50.002Z,15.91
2023-07-26T00:09:49.997Z,15.84
2023-07-26T00:10:49.995Z,15.75
2023-07-26T00:11:49.990Z,15.80
2023-07-26T00:12:49.999Z,15.79
2023-07-26T00:13:50.015Z,15.75
2023-07-26T00:14:49.971Z,15.61
2023-07-26T00:15:49.981Z,15.61
2023-07-26T00:16:49.960Z,15.52
2023-07-26T00:17:49.996Z,15.52
2023-07-26T00:18:49.950Z,15.55
2023-07-26T00:19:49.948Z,15.57
2023-07-26T00:20:49.945Z,15.57
2023-07-26T00:21:49.938Z,15.52
2023-07-26T00:22:50.006Z,15.44
2023-07-26T00:23:49.925Z,15.37
2023-07-26T00:24:49.994Z,15.36
2023-07-26T00:25:49.916Z,15.29
2023-07-26T00:26:49.909Z,15.35
2023-07-26T00:27:49.945Z,15.28
2023-07-26T00:28:49.924Z,15.27
2023-07-26T00:29:49.902Z,15.24
2023-07-26T00:30:49.900Z,15.24
2023-07-26T00:31:49.882Z,15.22
2023-07-26T00:32:49.941Z,15.21
2023-07-26T00:33:49.881Z,15.19
2023-07-26T00:34:49.869Z,15.09
2023-07-26T00:35:49.864Z,15.11
2023-07-26T00:36:49.858Z,15.17
2023-07-26T00:37:49.857Z,15.07
2023-07-26T00:38:49.927Z,15.03
2023-07-26T00:39:49.851Z,14.96
2023-07-26T00:40:49.843Z,14.99
2023-07-26T00:41:49.831Z,14.94
2023-07-26T00:42:49.823Z,14.99
2023-07-26T00:43:49.862Z,14.88
2023-07-26T00:44:49.830Z,14.91
2023-07-26T00:45:49.814Z,14.86
2023-07-26T00:46:49.858Z,14.82
2023-07-26T00:47:49.826Z,14.79
2023-07-26T00:48:49.803Z,14.78
2023-07-26T00:49:49.789Z,14.81
2023-07-26T00:50:49.775Z,14.81
2023-07-26T00:51:49.775Z,14.78
2023-07-26T00:52:49.769Z,14.69
2023-07-26T00:53:49.769Z,14.65
2023-07-26T00:54:49.761Z,14.60
2023-07-26T00:55:49.765Z,14.59
2023-07-26T00:56:49.751Z,14.55
2023-07-26T00:57:49.740Z,14.58
2023-07-26T00:58:49.735Z,14.51
2023-07-26T00:59:49.765Z,14.51
2023-07-26T01:00:49.821Z,14.51
2023-07-26T01:01:49.734Z,14.41
2023-07-26T01:02:49.785Z,14.43
2023-07-26T01:03:49.731Z,14.37
2023-07-26T01:04:49.701Z,14.28
2023-07-26T01:05:49.757Z,14.23
2023-07-26T01:06:49.689Z,14.26
2023-07-26T01:07:49.722Z,14.20
2023-07-26T01:08:49.744Z,14.18
2023-07-26T01:09:49.748Z,14.17
2023-07-26T01:10:49.686Z,14.15
2023-07-26T01:11:49.688Z,14.17
2023-07-26T01:12:49.701Z,14.10
2023-07-26T01:13:49.748Z,14.11
2023-07-26T01:14:49.760Z,14.04
2023-07-26T01:15:49.747Z,14.11
2023-07-26T01:16:49.685Z,14.00
2023-07-26T01:17:49.739Z,14.04
2023-07-26T01:18:49.681Z,14.08
2023-07-26T01:19:49.714Z,14.07
2023-07-26T01:20:49.737Z,13.99
2023-07-26T01:21:49.724Z,13.92
2023-07-26T01:22:49.678Z,13.85
2023-07-26T01:23:49.657Z,13.86
2023-07-26T01:24:49.622Z,13.85
2023-07-26T01:25:49.723Z,13.81
2023-07-26T01:26:49.588Z,13.92
2023-07-26T01:27:49.572Z,13.79
2023-07-26T01:28:49.567Z,13.85
2023-07-26T01:29:49.558Z,13.71
2023-07-26T01:30:49.572Z,13.71
2023-07-26T01:31:49.566Z,13.67
2023-07-26T01:32:49.564Z,13.74
2023-07-26T01:33:49.533Z,13.70
2023-07-26T01:34:49.533Z,13.70
2023-07-26T01:35:49.542Z,13.67
2023-07-26T01:36:49.702Z,13.60
2023-07-26T01:37:49.510Z,13.49
2023-07-26T01:38:49.520Z,13.65
2023-07-26T01:39:49.504Z,13.57
2023-07-26T01:40:49.491Z,13.56
2023-07-26T01:41:49.490Z,13.56
2023-07-26T01:42:49.479Z,13.50
2023-07-26T01:43:49.477Z,13.50
2023-07-26T01:44:49.472Z,13.50
2023-07-26T01:45:49.483Z,13.46
2023-07-26T01:46:49.493Z,13.41
2023-07-26T01:47:49.457Z,13.38
2023-07-26T01:48:49.445Z,13.37
2023-07-26T01:49:49.439Z,13.31
2023-07-26T01:50:49.436Z,13.35
2023-07-26T01:51:49.459Z,13.31
2023-07-26T01:52:49.419Z,13.37
2023-07-26T01:53:49.466Z,13.25
2023-07-26T01:54:49.405Z,13.33
2023-07-26T01:55:49.395Z,13.38
2023-07-26T01:56:49.392Z,13.41
2023-07-26T01:57:49.383Z,13.25
2023-07-26T01:58:49.382Z,13.31
2023-07-26T01:59:49.381Z,13.23
2023-07-26T02:00:49.365Z,13.23
2023-07-26T02:01:49.376Z,13.22
2023-07-26T02:02:49.396Z,13.19
2023-07-26T02:03:49.377Z,13.27
2023-07-26T02:04:49.344Z,13.22
2023-07-26T02:05:49.337Z,13.37
2023-07-26T02:06:49.330Z,13.23
2023-07-26T02:07:49.362Z,13.22
2023-07-26T02:08:49.318Z,13.33
2023-07-26T02:09:49.315Z,13.19
2023-07-26T02:10:49.303Z,13.20
2023-07-26T02:11:49.301Z,13.25
2023-07-26T02:12:49.293Z,13.23
2023-07-26T02:13:49.285Z,13.20
2023-07-26T02:14:49.279Z,13.25
2023-07-26T02:15:49.281Z,13.20
2023-07-26T02:16:49.267Z,13.20
2023-07-26T02:17:49.291Z,13.19
2023-07-26T02:18:49.256Z,13.18
2023-07-26T02:19:49.265Z,13.19
2023-07-26T02:20:49.243Z,13.20
2023-07-26T02:21:49.234Z,13.09
2023-07-26T02:22:49.228Z,13.19
2023-07-26T02:23:49.348Z,13.16
2023-07-26T02:24:49.257Z,13.08
2023-07-26T02:25:49.212Z,13.09
2023-07-26T02:26:49.218Z,13.15
2023-07-26T02:27:49.196Z,13.04
2023-07-26T02:28:49.295Z,13.04
2023-07-26T02:29:49.188Z,13.04
2023-07-26T02:30:49.191Z,13.05
2023-07-26T02:31:49.246Z,13.04
2023-07-26T02:32:49.183Z,13.05
2023-07-26T02:33:49.156Z,13.01
2023-07-26T02:34:49.152Z,13.01
2023-07-26T02:35:49.146Z,13.01
2023-07-26T02:36:49.135Z,13.05
2023-07-26T02:37:49.132Z,13.04
2023-07-26T02:38:49.186Z,12.97
2023-07-26T02:39:49.117Z,12.95
2023-07-26T02:40:49.115Z,12.98
2023-07-26T02:41:49.105Z,12.95
2023-07-26T02:42:49.123Z,12.90
2023-07-26T02:43:49.090Z,12.90
2023-07-26T02:44:49.087Z,12.87
2023-07-26T02:45:49.107Z,12.87
2023-07-26T02:46:49.068Z,12.90
2023-07-26T02:47:49.101Z,12.90
2023-07-26T02:48:49.055Z,12.85
2023-07-26T02:49:49.139Z,12.79
2023-07-26T02:50:49.046Z,12.80
2023-07-26T02:51:49.038Z,12.80
2023-07-26T02:52:49.032Z,12.76
2023-07-26T02:53:49.042Z,12.79
2023-07-26T02:54:49.108Z,12.68
2023-07-26T02:55:49.008Z,12.70
2023-07-26T02:56:49.011Z,12.67
2023-07-26T02:57:48.999Z,12.72
2023-07-26T02:58:48.991Z,12.62
2023-07-26T02:59:49.012Z,12.60
2023-07-26T03:00:49.001Z,12.54
2023-07-26T03:01:48.996Z,12.54
2023-07-26T03:02:49.051Z,12.53
2023-07-26T03:03:48.971Z,12.54
2023-07-26T03:04:48.951Z,12.46
2023-07-26T03:05:48.956Z,12.40
2023-07-26T03:06:48.945Z,12.45
2023-07-26T03:07:48.933Z,12.36
2023-07-26T03:08:48.938Z,12.39
2023-07-26T03:09:48.925Z,12.40
2023-07-26T03:10:48.912Z,12.31
2023-07-26T03:11:48.906Z,12.40
2023-07-26T03:12:48.901Z,12.31
2023-07-26T03:13:48.902Z,12.24
2023-07-26T03:14:48.888Z,12.32
2023-07-26T03:15:48.897Z,12.25
2023-07-26T03:16:48.873Z,12.21
2023-07-26T03:17:48.927Z,12.25
2023-07-26T03:18:48.869Z,12.27
2023-07-26T03:19:48.858Z,12.25
2023-07-26T03:20:48.848Z,12.17
2023-07-26T03:21:48.847Z,12.28
2023-07-26T03:22:48.837Z,12.20
2023-07-26T03:23:48.839Z,12.20
2023-07-26T03:24:48.919Z,12.31
2023-07-26T03:25:48.857Z,12.22
2023-07-26T03:26:48.809Z,12.27
2023-07-26T03:27:48.802Z,12.24
2023-07-26T03:28:48.807Z,12.27
2023-07-26T03:29:48.797Z,12.27
2023-07-26T03:30:48.796Z,12.24
2023-07-26T03:31:48.782Z,12.24
2023-07-26T03:32:48.864Z,12.15
2023-07-26T03:33:48.761Z,12.24
2023-07-26T03:34:48.757Z,12.28
2023-07-26T03:35:48.747Z,12.32
2023-07-26T03:36:48.739Z,12.29
2023-07-26T03:37:48.734Z,12.36
2023-07-26T03:38:48.733Z,12.31
2023-07-26T03:39:48.722Z,12.36
2023-07-26T03:40:48.716Z,12.35
2023-07-26T03:41:48.717Z,12.36
2023-07-26T03:42:48.700Z,12.43
2023-07-26T03:43:48.691Z,12.36
2023-07-26T03:44:48.690Z,12.45
2023-07-26T03:45:48.738Z,12.53
2023-07-26T03:46:48.672Z,12.46
2023-07-26T03:47:48.745Z,12.49
2023-07-26T03:48:48.660Z,12.49
2023-07-26T03:49:48.656Z,12.49
2023-07-26T03:50:48.652Z,12.47
2023-07-26T03:51:48.639Z,12.50
2023-07-26T03:52:48.648Z,12.57
2023-07-26T03:53:48.632Z,12.58
2023-07-26T03:54:48.623Z,12.67
2023-07-26T03:55:48.616Z,12.64
2023-07-26T03:56:48.609Z,12.65
2023-07-26T03:57:48.608Z,12.70
2023-07-26T03:58:48.598Z,12.78
2023-07-26T03:59:48.595Z,12.75
2023-07-26T04:00:48.642Z,12.72
2023-07-26T04:01:48.583Z,12.83
2023-07-26T04:02:48.625Z,12.80
2023-07-26T04:03:48.697Z,12.83
2023-07-26T04:04:48.561Z,12.82
2023-07-26T04:05:48.551Z,12.91
2023-07-26T04:06:48.544Z,12.90
2023-07-26T04:07:48.540Z,12.85
2023-07-26T04:08:48.559Z,12.85
2023-07-26T04:09:48.527Z,12.94
2023-07-26T04:10:48.522Z,12.87
2023-07-26T04:11:48.520Z,12.98
2023-07-26T04:12:48.509Z,13.08
2023-07-26T04:13:48.509Z,13.11
2023-07-26T04:14:48.513Z,13.11
2023-07-26T04:15:48.495Z,13.15
2023-07-26T04:16:48.483Z,13.13
2023-07-26T04:17:48.536Z,13.16
2023-07-26T04:18:48.488Z,13.27
2023-07-26T04:19:48.464Z,13.22
2023-07-26T04:20:48.459Z,13.35
2023-07-26T04:21:48.454Z,13.30
2023-07-26T04:22:48.447Z,13.38
2023-07-26T04:23:48.440Z,13.39
2023-07-26T04:24:48.468Z,13.44
2023-07-26T04:25:48.427Z,13.42
2023-07-26T04:26:48.422Z,13.46
2023-07-26T04:27:48.435Z,13.56
2023-07-26T04:28:48.413Z,13.41
2023-07-26T04:29:48.405Z,13.46
2023-07-26T04:30:48.414Z,13.47
2023-07-26T04:31:48.457Z,13.52
2023-07-26T04:32:48.412Z,13.49
2023-07-26T04:33:48.417Z,13.59
2023-07-26T04:34:48.372Z,13.52
2023-07-26T04:35:48.363Z,13.70
2023-07-26T04:36:48.373Z,13.72
2023-07-26T04:37:48.354Z,13.75
2023-07-26T04:38:48.347Z,13.81
2023-07-26T04:39:48.341Z,13.85
2023-07-26T04:40:48.332Z,13.95
2023-07-26T04:41:48.335Z,14.04
2023-07-26T04:42:48.322Z,14.10
2023-07-26T04:43:48.317Z,14.25
2023-07-26T04:44:48.310Z,14.33
2023-07-26T04:45:48.304Z,14.50
2023-07-26T04:46:48.320Z,14.59
2023-07-26T04:47:48.327Z,14.77
2023-07-26T04:48:48.286Z,14.78
2023-07-26T04:49:48.280Z,14.89
2023-07-26T04:50:48.280Z,15.00
2023-07-26T04:51:48.269Z,15.00
2023-07-26T04:52:48.266Z,15.10
2023-07-26T04:53:48.259Z,15.11
2023-07-26T04:54:48.252Z,15.14
2023-07-26T04:55:48.245Z,15.19
2023-07-26T04:56:48.242Z,15.27
2023-07-26T04:57:48.238Z,15.43
2023-07-26T04:58:48.238Z,15.42
2023-07-26T04:59:48.234Z,15.58
2023-07-26T05:00:48.285Z,15.64
2023-07-26T05:01:48.214Z,15.67
2023-07-26T05:02:48.228Z,15.80
2023-07-26T05:03:48.235Z,16.16
2023-07-26T05:04:48.200Z,16.53
2023-07-26T05:05:48.193Z,16.96
2023-07-26T05:06:48.195Z,17.36
2023-07-26T05:07:48.192Z,17.67
2023-07-26T05:08:48.177Z,17.71
2023-07-26T05:09:48.187Z,17.79
2023-07-26T05:10:48.169Z,17.86
2023-07-26T05:11:48.187Z,17.74
2023-07-26T05:12:48.156Z,17.60
2023-07-26T05:13:48.150Z,17.48
2023-07-26T05:14:48.146Z,17.24
2023-07-26T05:15:48.156Z,17.16
2023-07-26T05:16:48.168Z,16.87
2023-07-26T05:17:48.145Z,16.72
2023-07-26T05:18:48.125Z,16.47
2023-07-26T05:19:48.119Z,16.35
2023-07-26T05:20:48.124Z,16.21
2023-07-26T05:21:48.114Z,16.10
2023-07-26T05:22:48.126Z,16.02
2023-07-26T05:23:48.100Z,16.08
2023-07-26T05:24:48.145Z,16.02
2023-07-26T05:25:48.090Z,16.21
2023-07-26T05:26:48.096Z,16.35
2023-07-26T05:27:48.092Z,16.36
2023-07-26T05:28:48.075Z,16.31
2023-07-26T05:29:48.076Z,16.26
2023-07-26T05:30:48.094Z,16.32
2023-07-26T05:31:48.061Z,16.43
2023-07-26T05:32:48.070Z,16.58
2023-07-26T05:33:48.054Z,16.81
2023-07-26T05:34:48.056Z,16.91
2023-07-26T05:35:48.040Z,17.08
2023-07-26T05:36:48.037Z,17.46
2023-07-26T05:37:48.032Z,18.03
2023-07-26T05:38:48.040Z,18.56
2023-07-26T05:39:48.026Z,19.09
2023-07-26T05:40:48.022Z,19.12
2023-07-26T05:41:48.012Z,19.02
2023-07-26T05:42:48.012Z,19.33
2023-07-26T05:43:48.012Z,19.47
2023-07-26T05:44:48.007Z,19.55
2023-07-26T05:45:47.999Z,19.67
2023-07-26T05:46:48.022Z,19.95
2023-07-26T05:47:48.049Z,20.06
2023-07-26T05:48:47.989Z,19.92
2023-07-26T05:49:47.984Z,20.09
2023-07-26T05:50:47.974Z,20.03
2023-07-26T05:51:47.969Z,20.16
2023-07-26T05:52:47.965Z,20.43
2023-07-26T05:53:47.963Z,20.77
2023-07-26T05:54:47.956Z,20.78
2023-07-26T05:55:48.040Z,21.11
2023-07-26T05:56:47.948Z,21.21
2023-07-26T05:57:47.952Z,21.18
2023-07-26T05:58:49.503Z,20.97
2023-07-26T05:59:47.942Z,20.77
2023-07-26T06:00:47.933Z,20.63
2023-07-26T06:01:47.934Z,20.58
2023-07-26T06:02:47.998Z,20.48
2023-07-26T06:03:47.929Z,20.51
2023-07-26T06:04:47.925Z,20.69
2023-07-26T06:05:47.947Z,20.82
2023-07-26T06:06:47.915Z,20.92
2023-07-26T06:07:47.912Z,20.82
2023-07-26T06:08:47.911Z,20.90
2023-07-26T06:09:47.917Z,21.09
2023-07-26T06:10:47.903Z,21.35
2023-07-26T06:11:56.759Z,21.48
2023-07-26T06:12:47.897Z,21.66
2023-07-26T06:13:47.915Z,21.89
2023-07-26T06:14:47.899Z,22.08
2023-07-26T06:15:47.893Z,22.07
2023-07-26T06:16:47.968Z,22.28
2023-07-26T06:17:47.919Z,22.57
2023-07-26T06:18:47.884Z,22.84
2023-07-26T06:19:47.892Z,23.12
2023-07-26T06:20:47.879Z,23.12
2023-07-26T06:21:47.884Z,23.03
2023-07-26T06:22:47.886Z,22.98
2023-07-26T06:23:47.876Z,22.91
2023-07-26T06:24:47.916Z,23.28
2023-07-26T06:25:47.872Z,23.46
2023-07-26T06:26:47.865Z,23.00
2023-07-26T06:27:47.863Z,22.38
2023-07-26T06:28:47.874Z,22.00
2023-07-26T06:29:47.862Z,22.22
2023-07-26T06:30:47.908Z,22.50
2023-07-26T06:31:47.864Z,22.84
2023-07-26T06:32:47.907Z,23.03
2023-07-26T06:33:47.857Z,22.76
2023-07-26T06:34:47.921Z,22.48
2023-07-26T06:35:47.853Z,21.89
2023-07-26T06:36:47.855Z,21.51
2023-07-26T06:37:47.852Z,21.20
2023-07-26T06:38:47.860Z,21.05
2023-07-26T06:39:47.851Z,21.09
2023-07-26T06:40:47.846Z,21.02
2023-07-26T06:41:47.848Z,21.32
2023-07-26T06:42:47.845Z,21.54
2023-07-26T06:43:47.844Z,21.51
2023-07-26T06:44:47.843Z,21.72
2023-07-26T06:45:47.858Z,22.13
2023-07-26T06:46:47.838Z,22.62
2023-07-26T06:47:47.856Z,23.03
2023-07-26T06:48:47.879Z,23.47
2023-07-26T06:49:47.839Z,23.59
2023-07-26T06:50:47.835Z,23.65
2023-07-26T06:51:47.839Z,23.40
2023-07-26T06:52:47.836Z,23.13
2023-07-26T06:53:47.839Z,22.73
2023-07-26T06:54:47.833Z,22.68
2023-07-26T06:55:47.832Z,22.28
2023-07-26T06:56:47.832Z,22.07
2023-07-26T06:57:47.832Z,22.00
2023-07-26T06:58:47.828Z,22.10
2023-07-26T06:59:47.832Z,22.30
2023-07-26T07:00:47.827Z,22.25
2023-07-26T07:01:47.897Z,22.25
2023-07-26T07:02:47.863Z,22.36
2023-07-26T07:04:47.860Z,22.76
2023-07-26T07:05:47.826Z,22.93
2023-07-26T07:06:47.824Z,23.17
2023-07-26T07:07:47.824Z,23.32
2023-07-26T07:08:47.822Z,23.65
2023-07-26T07:09:47.837Z,23.78
2023-07-26T07:10:47.821Z,23.73
2023-07-26T07:11:47.824Z,23.59
2023-07-26T07:12:47.823Z,23.65
2023-07-26T07:13:47.835Z,23.58
2023-07-26T07:14:47.828Z,23.37
2023-07-26T07:15:47.864Z,23.20
2023-07-26T07:16:47.831Z,23.00
2023-07-26T07:17:51.069Z,22.73
2023-07-26T07:18:47.821Z,22.62
2023-07-26T07:19:47.821Z,22.62
2023-07-26T07:20:47.822Z,22.70
2023-07-26T07:21:47.864Z,22.69
2023-07-26T07:22:47.820Z,22.93
2023-07-26T07:23:47.820Z,22.94
2023-07-26T07:24:47.854Z,22.94
2023-07-26T07:25:47.820Z,22.93
2023-07-26T07:26:47.818Z,22.84
2023-07-26T07:27:47.830Z,22.47
2023-07-26T07:28:47.836Z,22.26
2023-07-26T07:29:47.826Z,22.04
2023-07-26T07:30:47.819Z,21.82
2023-07-26T07:31:47.856Z,21.76
2023-07-26T07:32:47.866Z,21.50
2023-07-26T07:33:47.829Z,21.35
2023-07-26T07:34:47.818Z,21.48
2023-07-26T07:35:47.824Z,21.55
2023-07-26T07:36:47.815Z,21.72
2023-07-26T07:37:47.820Z,21.58
2023-07-26T07:38:47.838Z,21.36
2023-07-26T07:39:47.814Z,21.33
2023-07-26T07:40:47.814Z,21.21
2023-07-26T07:41:47.817Z,21.06
2023-07-26T07:42:47.815Z,21.18
2023-07-26T07:43:47.813Z,21.32
2023-07-26T07:44:47.832Z,21.57
2023-07-26T07:45:47.839Z,21.95
2023-07-26T07:47:00.322Z,22.45
2023-07-26T07:47:47.897Z,22.55
2023-07-26T07:48:47.809Z,22.59
2023-07-26T07:49:47.811Z,22.69
2023-07-26T07:50:47.821Z,23.02
2023-07-26T07:51:47.807Z,22.53
2023-07-26T07:52:47.814Z,22.45
2023-07-26T07:53:47.810Z,22.53
2023-07-26T07:54:47.806Z,22.50
2023-07-26T07:55:47.809Z,22.63
2023-07-26T07:56:47.809Z,22.26
2023-07-26T07:57:47.828Z,22.35
2023-07-26T07:58:47.807Z,22.70
2023-07-26T07:59:47.815Z,23.17
2023-07-26T08:00:47.806Z,23.39
2023-07-26T08:01:47.822Z,23.76
2023-07-26T08:02:47.847Z,23.95
2023-07-26T08:03:47.876Z,23.43
2023-07-26T08:04:47.813Z,23.55
2023-07-26T08:05:47.807Z,23.66
2023-07-26T08:06:47.817Z,23.76
2023-07-26T08:07:47.838Z,23.73
2023-07-26T08:08:47.814Z,23.65
2023-07-26T08:09:47.824Z,23.58
2023-07-26T08:10:47.824Z,23.47
2023-07-26T08:11:47.812Z,23.55
2023-07-26T08:12:47.813Z,23.21
2023-07-26T08:13:47.817Z,23.21
2023-07-26T08:14:47.812Z,23.02
2023-07-26T08:15:47.881Z,23.02
2023-07-26T08:16:47.934Z,23.17
2023-07-26T08:17:47.855Z,23.20
2023-07-26T08:18:47.819Z,23.41
2023-07-26T08:19:47.826Z,23.48
2023-07-26T08:20:47.832Z,23.36
2023-07-26T08:21:47.818Z,23.37
2023-07-26T08:22:47.820Z,23.55
2023-07-26T08:23:47.836Z,23.86
2023-07-26T08:24:47.834Z,24.28
2023-07-26T08:25:47.823Z,24.63
2023-07-26T08:26:47.841Z,24.68
2023-07-26T08:27:47.829Z,24.78
2023-07-26T08:28:47.828Z,24.86
2023-07-26T08:29:47.845Z,24.92
2023-07-26T08:30:47.822Z,25.23
2023-07-26T08:31:47.876Z,25.29
2023-07-26T08:32:47.842Z,25.41
2023-07-26T08:33:47.831Z,25.13
2023-07-26T08:34:47.844Z,24.88
2023-07-26T08:35:47.831Z,24.85
2023-07-26T08:36:47.842Z,24.47
2023-07-26T08:37:47.836Z,24.24
2023-07-26T08:38:47.829Z,23.73
2023-07-26T08:39:47.834Z,23.39
2023-07-26T08:40:47.842Z,23.32
2023-07-26T08:41:47.831Z,22.78
2023-07-26T08:42:47.833Z,22.39
2023-07-26T08:43:47.833Z,22.07
2023-07-26T08:44:47.833Z,21.98
2023-07-26T08:45:47.858Z,22.07
2023-07-26T08:46:47.833Z,21.89
2023-07-26T08:47:47.873Z,21.79
2023-07-26T08:48:47.836Z,21.73
2023-07-26T08:49:47.829Z,21.62
2023-07-26T08:50:47.834Z,21.58
2023-07-26T08:51:47.833Z,21.57
2023-07-26T08:52:47.842Z,21.85
2023-07-26T08:53:47.831Z,21.82
2023-07-26T08:54:47.839Z,21.89
2023-07-26T08:55:47.834Z,21.69
2023-07-26T08:56:47.826Z,21.58
2023-07-26T08:57:47.825Z,21.37
2023-07-26T08:58:47.822Z,21.42
2023-07-26T08:59:47.876Z,21.33
2023-07-26T09:00:47.892Z,21.43
2023-07-26T09:02:02.076Z,21.50
2023-07-26T09:02:47.934Z,21.61
2023-07-26T09:03:47.902Z,21.45
2023-07-26T09:04:47.824Z,21.48
2023-07-26T09:05:47.829Z,21.66
2023-07-26T09:06:47.827Z,21.93
2023-07-26T09:07:47.819Z,22.07
2023-07-26T09:08:47.821Z,22.29
2023-07-26T09:09:47.853Z,22.60
2023-07-26T09:10:47.819Z,22.63
2023-07-26T09:11:47.820Z,22.54
2023-07-26T09:12:47.823Z,22.60
2023-07-26T09:13:47.826Z,22.54
2023-07-26T09:14:47.836Z,22.44
2023-07-26T09:15:47.834Z,22.08
2023-07-26T09:16:47.823Z,21.70
2023-07-26T09:17:47.836Z,21.48
2023-07-26T09:18:47.818Z,21.21
2023-07-26T09:19:47.818Z,21.17
2023-07-26T09:20:47.820Z,21.00
2023-07-26T09:21:47.822Z,20.92
2023-07-26T09:22:47.818Z,20.97
2023-07-26T09:23:50.443Z,20.95
2023-07-26T09:24:47.859Z,21.05
2023-07-26T09:25:47.819Z,21.12
2023-07-26T09:26:47.816Z,21.20
2023-07-26T09:27:47.818Z,21.12
2023-07-26T09:28:47.813Z,21.07
2023-07-26T09:29:47.811Z,21.05
2023-07-26T09:30:47.812Z,21.17
2023-07-26T09:31:47.838Z,21.06
2023-07-26T09:32:47.842Z,21.03
2023-07-26T09:33:47.809Z,21.12
2023-07-26T09:34:47.841Z,21.21
2023-07-26T09:35:47.812Z,21.29
2023-07-26T09:36:47.812Z,21.18
2023-07-26T09:37:47.807Z,21.20
2023-07-26T09:38:47.806Z,21.21
2023-07-26T09:39:47.803Z,21.02
2023-07-26T09:40:47.822Z,21.18
2023-07-26T09:41:47.798Z,21.27
2023-07-26T09:42:49.268Z,21.39
2023-07-26T09:43:47.794Z,21.36
2023-07-26T09:44:47.806Z,21.51
2023-07-26T09:45:47.792Z,21.58
2023-07-26T09:46:47.814Z,21.58
2023-07-26T09:47:48.329Z,21.61
2023-07-26T09:48:53.899Z,21.76
2023-07-26T09:49:47.835Z,21.85
2023-07-26T09:52:47.787Z,21.83
2023-07-26T09:53:47.801Z,21.73
2023-07-26T09:54:47.782Z,21.66
2023-07-26T09:55:59.895Z,21.80
2023-07-26T09:56:47.779Z,21.77
2023-07-26T09:57:47.778Z,21.72
2023-07-26T09:58:48.326Z,21.67
2023-07-26T09:59:48.761Z,21.52
2023-07-26T10:00:47.789Z,21.69
2023-07-26T10:01:47.775Z,21.69
2023-07-26T10:02:47.840Z,21.67
2023-07-26T10:03:47.771Z,21.69
2023-07-26T10:04:47.773Z,21.77
2023-07-26T10:05:47.773Z,21.80
2023-07-26T10:06:47.775Z,21.77
2023-07-26T10:07:47.769Z,21.70
2023-07-26T10:08:47.773Z,21.51
2023-07-26T10:09:47.850Z,21.66
2023-07-26T10:10:47.762Z,21.58
2023-07-26T10:11:47.766Z,21.60
2023-07-26T10:12:47.761Z,21.64
2023-07-26T10:13:47.764Z,21.51
2023-07-26T10:14:47.763Z,21.35
2023-07-26T10:15:47.758Z,21.39
2023-07-26T10:16:47.783Z,21.35
2023-07-26T10:17:47.783Z,21.25
2023-07-26T10:18:47.755Z,21.27
2023-07-26T10:19:47.758Z,21.36
2023-07-26T10:20:47.776Z,21.46
2023-07-26T10:21:47.758Z,21.39
2023-07-26T10:22:47.751Z,21.57
2023-07-26T10:23:47.747Z,21.35
2023-07-26T10:24:47.877Z,21.33
2023-07-26T10:25:47.751Z,21.32
2023-07-26T10:26:47.755Z,21.45
2023-07-26T10:27:47.745Z,21.61
2023-07-26T10:28:47.741Z,21.69
2023-07-26T10:29:47.744Z,21.75
2023-07-26T10:30:47.824Z,21.69
2023-07-26T10:31:47.746Z,21.83
2023-07-26T10:32:47.742Z,21.69
2023-07-26T10:33:47.737Z,21.58
2023-07-26T10:34:47.731Z,21.51
2023-07-26T10:35:47.739Z,21.66
2023-07-26T10:36:47.730Z,21.72
2023-07-26T10:37:47.745Z,21.92
2023-07-26T10:38:47.727Z,21.76
2023-07-26T10:39:47.728Z,21.55
2023-07-26T10:40:47.725Z,21.52
2023-07-26T10:41:47.728Z,21.57
2023-07-26T10:42:47.727Z,21.62
2023-07-26T10:43:47.725Z,21.67
2023-07-26T10:44:47.753Z,21.64
2023-07-26T10:45:47.725Z,21.72
2023-07-26T10:46:47.770Z,21.69
2023-07-26T10:47:47.752Z,21.66
2023-07-26T10:48:47.714Z,21.70
2023-07-26T10:49:47.715Z,21.79
2023-07-26T10:50:47.710Z,21.62
2023-07-26T10:51:47.710Z,20.99
2023-07-26T10:52:47.708Z,20.55
2023-07-26T10:53:47.705Z,20.24
2023-07-26T10:54:47.740Z,19.89
2023-07-26T10:55:47.704Z,19.77
2023-07-26T10:56:47.703Z,19.55
2023-07-26T10:57:47.700Z,19.34
2023-07-26T10:58:47.701Z,19.31
2023-07-26T10:59:47.700Z,19.30
2023-07-26T11:00:47.696Z,19.29
2023-07-26T11:01:47.771Z,19.26
2023-07-26T11:02:47.792Z,19.26
2023-07-26T11:03:47.700Z,19.31
2023-07-26T11:04:47.720Z,19.21
2023-07-26T11:05:47.684Z,19.36
2023-07-26T11:06:47.677Z,19.34
2023-07-26T11:07:47.679Z,19.45
2023-07-26T11:08:47.677Z,19.54
2023-07-26T11:09:47.683Z,19.58
2023-07-26T11:10:47.669Z,19.51
2023-07-26T11:11:47.668Z,19.63
2023-07-26T11:12:47.665Z,19.67
2023-07-26T11:13:47.664Z,19.81
2023-07-26T11:14:54.725Z,19.94
2023-07-26T11:16:14.914Z,20.10
2023-07-26T11:16:47.678Z,20.16
2023-07-26T11:17:47.663Z,20.18
2023-07-26T11:18:47.665Z,20.28
2023-07-26T11:19:47.695Z,20.22
2023-07-26T11:20:47.650Z,20.21
2023-07-26T11:21:47.649Z,20.14
2023-07-26T11:22:47.643Z,20.03
2023-07-26T11:23:47.642Z,20.11
2023-07-26T11:24:47.755Z,20.36
2023-07-26T11:25:47.643Z,20.31
2023-07-26T11:26:47.632Z,20.36
2023-07-26T11:27:47.629Z,20.43
2023-07-26T11:28:47.625Z,20.37
2023-07-26T11:29:47.624Z,20.28
2023-07-26T11:30:47.623Z,20.28
2023-07-26T11:31:47.685Z,20.29
2023-07-26T11:32:47.648Z,20.29
2023-07-26T11:33:47.619Z,20.43
2023-07-26T11:34:47.614Z,20.41
2023-07-26T11:35:47.609Z,20.69
2023-07-26T11:36:47.607Z,20.84
2023-07-26T11:37:47.604Z,21.02
2023-07-26T11:38:47.611Z,21.30
2023-07-26T11:39:47.605Z,21.50
2023-07-26T11:40:47.597Z,21.64
2023-07-26T11:41:47.617Z,21.54
2023-07-26T11:42:47.593Z,21.62
2023-07-26T11:43:47.607Z,21.62
2023-07-26T11:44:47.588Z,21.66
2023-07-26T11:45:47.651Z,21.72
2023-07-26T11:46:47.614Z,21.64
2023-07-26T11:47:47.606Z,21.70
2023-07-26T11:48:47.580Z,21.61
2023-07-26T11:49:47.579Z,21.66
2023-07-26T11:50:47.579Z,21.43
2023-07-26T11:51:47.576Z,21.17
2023-07-26T11:52:47.573Z,20.97
2023-07-26T11:53:50.042Z,20.96
2023-07-26T11:54:47.571Z,20.88
2023-07-26T11:55:47.630Z,20.92
2023-07-26T11:56:47.566Z,20.87
2023-07-26T11:57:47.568Z,20.84
2023-07-26T11:58:47.562Z,20.85
2023-07-26T11:59:47.560Z,21.11
2023-07-26T12:00:48.548Z,21.09
2023-07-26T12:01:47.620Z,21.14
2023-07-26T12:02:47.620Z,21.20
2023-07-26T12:03:47.643Z,21.29
2023-07-26T12:04:47.579Z,21.32
2023-07-26T12:05:47.570Z,21.40
2023-07-26T12:06:47.552Z,21.45
2023-07-26T12:07:47.559Z,21.42
2023-07-26T12:08:47.608Z,21.52
2023-07-26T12:09:47.546Z,21.58
2023-07-26T12:10:47.544Z,21.69
2023-07-26T12:11:47.597Z,21.80
2023-07-26T12:12:47.588Z,21.82
2023-07-26T12:13:47.552Z,21.80
2023-07-26T12:14:47.538Z,21.82
2023-07-26T12:15:47.536Z,21.64
2023-07-26T12:16:47.560Z,21.46
2023-07-26T12:17:48.746Z,21.40
2023-07-26T12:18:47.579Z,21.29
2023-07-26T12:19:47.535Z,21.05
2023-07-26T12:21:00.313Z,21.03
2023-07-26T12:21:47.570Z,21.09
2023-07-26T12:22:47.528Z,21.30
2023-07-26T12:23:47.522Z,21.35
2023-07-26T12:24:47.536Z,21.52
2023-07-26T12:25:47.546Z,21.46
2023-07-26T12:26:47.517Z,21.70
2023-07-26T12:27:47.514Z,21.80
2023-07-26T12:28:47.516Z,22.04
2023-07-26T12:29:49.244Z,22.14
2023-07-26T12:30:47.510Z,22.26
2023-07-26T12:31:47.784Z,22.41
2023-07-26T12:32:47.560Z,22.57
2023-07-26T12:33:47.514Z,22.51
2023-07-26T12:34:47.506Z,22.63
2023-07-26T12:35:50.105Z,22.57
2023-07-26T12:36:47.525Z,22.50
2023-07-26T12:37:47.500Z,22.32
2023-07-26T12:38:47.506Z,22.25
2023-07-26T12:39:47.496Z,22.17
2023-07-26T12:40:47.498Z,22.08
2023-07-26T12:41:47.491Z,22.14
2023-07-26T12:42:47.492Z,22.28
2023-07-26T12:43:47.492Z,22.30
2023-07-26T12:44:47.490Z,22.35
2023-07-26T12:45:47.523Z,22.39
2023-07-26T12:47:47.522Z,22.57
2023-07-26T12:48:47.492Z,22.50
2023-07-26T12:49:47.485Z,22.60
2023-07-26T12:50:47.526Z,22.47
2023-07-26T12:51:47.480Z,22.44
2023-07-26T12:52:47.496Z,22.38
2023-07-26T12:53:47.481Z,22.36
2023-07-26T12:54:47.477Z,22.30
2023-07-26T12:55:47.528Z,22.22
2023-07-26T12:56:47.551Z,22.32